sensor_id;sensor_type;location;lat;lon;timestamp;temperature;humidity
46552;DHT22;32278;51.810;4.712;2022-09-17T00:01:14;13.00;99.90
46552;DHT22;32278;51.810;4.712;2022-09-17T00:03:42;13.00;99.90
46552;DHT22;32278;51.810;4.712;2022-09-17T00:06:09;12.80;99.90
46552;DHT22;32278;51.810;4.712;2022-09-17T00:08:38;12.70;99.90
46552;DHT22;32278;51.810;4.712;2022-09-17T00:11:08;12.70;99.90
46552;DHT22;32278;51.810;4.712;2022-09-17T00:13:34;12.70;99.90
46552;DHT22;32278;51.810;4.712;2022-09-17T00:16:00;12.60;99.90
46552;DHT22;32278;51.810;4.712;2022-09-17T00:18:25;12.70;99.90
46552;DHT22;32278;51.810;4.712;2022-09-17T00:20:51;12.70;99.90
46552;DHT22;32278;51.810;4.712;2022-09-17T00:23:17;12.60;99.90
46552;DHT22;32278;51.810;4.712;2022-09-17T00:25:44;12.70;99.90
46552;DHT22;32278;51.810;4.712;2022-09-17T00:28:12;12.80;99.90
46552;DHT22;32278;51.810;4.712;2022-09-17T00:30:42;12.80;99.90
46552;DHT22;32278;51.810;4.712;2022-09-17T00:33:14;12.90;99.90
46552;DHT22;32278;51.810;4.712;2022-09-17T00:35:40;12.90;99.90
46552;DHT22;32278;51.810;4.712;2022-09-17T00:38:05;13.00;99.90
46552;DHT22;32278;51.810;4.712;2022-09-17T00:40:31;12.90;99.90
46552;DHT22;32278;51.810;4.712;2022-09-17T00:42:57;12.90;99.90
46552;DHT22;32278;51.810;4.712;2022-09-17T00:45:23;12.90;99.90
46552;DHT22;32278;51.810;4.712;2022-09-17T00:48:03;12.80;99.90
46552;DHT22;32278;51.810;4.712;2022-09-17T00:50:34;12.70;99.90
46552;DHT22;32278;51.810;4.712;2022-09-17T00:53:04;12.70;99.90
46552;DHT22;32278;51.810;4.712;2022-09-17T00:58:32;12.70;99.90
46552;DHT22;32278;51.810;4.712;2022-09-17T01:00:59;12.60;99.90
46552;DHT22;32278;51.810;4.712;2022-09-17T01:03:25;12.50;99.90
46552;DHT22;32278;51.810;4.712;2022-09-17T01:14:09;12.40;99.90
46552;DHT22;32278;51.810;4.712;2022-09-17T01:16:59;12.30;99.90
46552;DHT22;32278;51.810;4.712;2022-09-17T01:25:23;12.30;99.90
46552;DHT22;32278;51.810;4.712;2022-09-17T01:34:08;12.30;99.90
46552;DHT22;32278;51.810;4.712;2022-09-17T01:39:33;12.40;99.90
46552;DHT22;32278;51.810;4.712;2022-09-17T01:42:05;12.30;99.90
46552;DHT22;32278;51.810;4.712;2022-09-17T01:47:29;12.40;99.90
46552;DHT22;32278;51.810;4.712;2022-09-17T01:50:00;12.30;99.90
46552;DHT22;32278;51.810;4.712;2022-09-17T01:52:27;12.40;99.90
46552;DHT22;32278;51.810;4.712;2022-09-17T01:54:58;12.30;99.90
46552;DHT22;32278;51.810;4.712;2022-09-17T01:57:32;12.30;99.90
46552;DHT22;32278;51.810;4.712;2022-09-17T02:00:05;12.40;99.90
46552;DHT22;32278;51.810;4.712;2022-09-17T02:02:35;12.50;99.90
46552;DHT22;32278;51.810;4.712;2022-09-17T02:05:10;12.60;99.90
46552;DHT22;32278;51.810;4.712;2022-09-17T02:07:51;12.70;99.90
46552;DHT22;32278;51.810;4.712;2022-09-17T02:10:20;12.70;99.90
46552;DHT22;32278;51.810;4.712;2022-09-17T02:12:59;12.60;99.90
46552;DHT22;32278;51.810;4.712;2022-09-17T02:15:31;12.60;99.90
46552;DHT22;32278;51.810;4.712;2022-09-17T02:18:25;12.60;99.90
46552;DHT22;32278;51.810;4.712;2022-09-17T02:24:16;12.50;99.90
46552;DHT22;32278;51.810;4.712;2022-09-17T02:27:03;12.60;99.90
46552;DHT22;32278;51.810;4.712;2022-09-17T02:29:34;12.50;99.90
46552;DHT22;32278;51.810;4.712;2022-09-17T02:32:00;12.50;99.90
46552;DHT22;32278;51.810;4.712;2022-09-17T02:34:27;12.50;99.90
46552;DHT22;32278;51.810;4.712;2022-09-17T02:36:54;12.40;99.90
46552;DHT22;32278;51.810;4.712;2022-09-17T02:39:20;12.50;99.90
46552;DHT22;32278;51.810;4.712;2022-09-17T02:41:57;12.30;99.90
46552;DHT22;32278;51.810;4.712;2022-09-17T02:48:07;12.40;99.90
46552;DHT22;32278;51.810;4.712;2022-09-17T02:53:40;12.50;99.90
46552;DHT22;32278;51.810;4.712;2022-09-17T02:59:19;12.60;99.90
46552;DHT22;32278;51.810;4.712;2022-09-17T03:04:23;12.70;99.90
46552;DHT22;32278;51.810;4.712;2022-09-17T03:06:51;12.60;99.90
46552;DHT22;32278;51.810;4.712;2022-09-17T03:09:16;12.60;99.90
46552;DHT22;32278;51.810;4.712;2022-09-17T03:11:42;12.60;99.90
46552;DHT22;32278;51.810;4.712;2022-09-17T03:14:07;12.50;99.90
46552;DHT22;32278;51.810;4.712;2022-09-17T03:16:33;12.40;99.90
46552;DHT22;32278;51.810;4.712;2022-09-17T03:18:58;12.30;99.90
46552;DHT22;32278;51.810;4.712;2022-09-17T03:21:24;12.10;99.90
46552;DHT22;32278;51.810;4.712;2022-09-17T03:23:50;12.10;99.90
46552;DHT22;32278;51.810;4.712;2022-09-17T03:26:17;12.00;99.90
46552;DHT22;32278;51.810;4.712;2022-09-17T03:28:42;11.90;99.90
46552;DHT22;32278;51.810;4.712;2022-09-17T03:31:08;11.90;99.90
46552;DHT22;32278;51.810;4.712;2022-09-17T03:33:33;11.90;99.90
46552;DHT22;32278;51.810;4.712;2022-09-17T03:35:59;11.80;99.90
46552;DHT22;32278;51.810;4.712;2022-09-17T03:38:25;11.70;99.90
46552;DHT22;32278;51.810;4.712;2022-09-17T03:41:01;11.70;99.90
46552;DHT22;32278;51.810;4.712;2022-09-17T03:43:28;11.70;99.90
46552;DHT22;32278;51.810;4.712;2022-09-17T03:45:54;11.70;99.90
46552;DHT22;32278;51.810;4.712;2022-09-17T03:48:20;11.70;99.90
46552;DHT22;32278;51.810;4.712;2022-09-17T03:50:46;11.80;99.90
46552;DHT22;32278;51.810;4.712;2022-09-17T03:53:11;11.70;99.90
46552;DHT22;32278;51.810;4.712;2022-09-17T03:55:38;11.80;99.90
46552;DHT22;32278;51.810;4.712;2022-09-17T03:58:03;11.80;99.90
46552;DHT22;32278;51.810;4.712;2022-09-17T04:00:29;11.80;99.90
46552;DHT22;32278;51.810;4.712;2022-09-17T04:02:55;11.80;99.90
46552;DHT22;32278;51.810;4.712;2022-09-17T04:05:21;11.80;99.90
46552;DHT22;32278;51.810;4.712;2022-09-17T04:07:46;11.90;99.90
46552;DHT22;32278;51.810;4.712;2022-09-17T04:10:12;11.80;99.90
46552;DHT22;32278;51.810;4.712;2022-09-17T04:12:38;11.80;99.90
46552;DHT22;32278;51.810;4.712;2022-09-17T04:15:04;11.90;99.90
46552;DHT22;32278;51.810;4.712;2022-09-17T04:17:29;11.80;99.90
46552;DHT22;32278;51.810;4.712;2022-09-17T04:19:55;11.90;99.90
46552;DHT22;32278;51.810;4.712;2022-09-17T04:22:21;11.90;99.90
46552;DHT22;32278;51.810;4.712;2022-09-17T04:24:46;11.90;99.90
46552;DHT22;32278;51.810;4.712;2022-09-17T04:27:12;12.00;99.90
46552;DHT22;32278;51.810;4.712;2022-09-17T04:29:37;12.00;99.90
46552;DHT22;32278;51.810;4.712;2022-09-17T04:32:03;12.10;99.90
46552;DHT22;32278;51.810;4.712;2022-09-17T04:34:28;12.20;99.90
46552;DHT22;32278;51.810;4.712;2022-09-17T04:36:55;12.20;99.90
46552;DHT22;32278;51.810;4.712;2022-09-17T04:39:20;12.00;99.90
46552;DHT22;32278;51.810;4.712;2022-09-17T04:41:46;12.00;99.90
46552;DHT22;32278;51.810;4.712;2022-09-17T04:44:12;12.00;99.90
46552;DHT22;32278;51.810;4.712;2022-09-17T04:46:37;12.00;99.90
46552;DHT22;32278;51.810;4.712;2022-09-17T04:49:03;12.00;99.90
46552;DHT22;32278;51.810;4.712;2022-09-17T04:51:28;12.10;99.90
46552;DHT22;32278;51.810;4.712;2022-09-17T04:53:54;12.10;99.90
46552;DHT22;32278;51.810;4.712;2022-09-17T04:56:19;12.20;99.90
46552;DHT22;32278;51.810;4.712;2022-09-17T04:58:45;12.20;99.90
46552;DHT22;32278;51.810;4.712;2022-09-17T05:01:11;12.20;99.90
46552;DHT22;32278;51.810;4.712;2022-09-17T05:03:38;12.20;99.90
46552;DHT22;32278;51.810;4.712;2022-09-17T05:06:04;12.20;99.90
46552;DHT22;32278;51.810;4.712;2022-09-17T05:08:29;12.10;99.90
46552;DHT22;32278;51.810;4.712;2022-09-17T05:10:55;12.00;99.90
46552;DHT22;32278;51.810;4.712;2022-09-17T05:13:20;11.90;99.90
46552;DHT22;32278;51.810;4.712;2022-09-17T05:15:46;11.90;99.90
46552;DHT22;32278;51.810;4.712;2022-09-17T05:18:12;11.90;99.90
46552;DHT22;32278;51.810;4.712;2022-09-17T05:20:37;11.90;99.90
46552;DHT22;32278;51.810;4.712;2022-09-17T05:23:03;11.90;99.90
46552;DHT22;32278;51.810;4.712;2022-09-17T05:25:29;12.00;99.90
46552;DHT22;32278;51.810;4.712;2022-09-17T05:27:55;11.90;99.90
46552;DHT22;32278;51.810;4.712;2022-09-17T05:30:21;11.90;99.90
46552;DHT22;32278;51.810;4.712;2022-09-17T05:32:47;11.80;99.90
46552;DHT22;32278;51.810;4.712;2022-09-17T05:35:13;11.90;99.90
46552;DHT22;32278;51.810;4.712;2022-09-17T05:37:39;11.80;99.90
46552;DHT22;32278;51.810;4.712;2022-09-17T05:40:06;11.80;99.90
46552;DHT22;32278;51.810;4.712;2022-09-17T05:42:32;11.70;99.90
46552;DHT22;32278;51.810;4.712;2022-09-17T05:44:58;11.70;99.90
46552;DHT22;32278;51.810;4.712;2022-09-17T05:47:24;11.70;99.90
46552;DHT22;32278;51.810;4.712;2022-09-17T05:49:49;11.70;99.90
46552;DHT22;32278;51.810;4.712;2022-09-17T05:52:15;11.80;99.90
46552;DHT22;32278;51.810;4.712;2022-09-17T05:54:40;11.90;99.90
46552;DHT22;32278;51.810;4.712;2022-09-17T05:57:06;11.90;99.90
46552;DHT22;32278;51.810;4.712;2022-09-17T05:59:32;12.00;99.90
46552;DHT22;32278;51.810;4.712;2022-09-17T06:01:57;12.20;99.90
46552;DHT22;32278;51.810;4.712;2022-09-17T06:04:23;12.30;99.90
46552;DHT22;32278;51.810;4.712;2022-09-17T06:06:48;12.50;99.90
46552;DHT22;32278;51.810;4.712;2022-09-17T06:09:14;12.50;99.90
46552;DHT22;32278;51.810;4.712;2022-09-17T06:11:40;12.60;99.90
46552;DHT22;32278;51.810;4.712;2022-09-17T06:14:07;12.70;99.90
46552;DHT22;32278;51.810;4.712;2022-09-17T06:16:32;12.40;99.90
46552;DHT22;32278;51.810;4.712;2022-09-17T06:18:58;12.30;99.90
46552;DHT22;32278;51.810;4.712;2022-09-17T06:21:23;12.30;99.90
46552;DHT22;32278;51.810;4.712;2022-09-17T06:23:49;12.10;99.90
46552;DHT22;32278;51.810;4.712;2022-09-17T06:26:15;12.20;99.90
46552;DHT22;32278;51.810;4.712;2022-09-17T06:28:40;12.30;99.90
46552;DHT22;32278;51.810;4.712;2022-09-17T06:31:08;12.50;99.90
46552;DHT22;32278;51.810;4.712;2022-09-17T06:33:34;12.40;99.90
46552;DHT22;32278;51.810;4.712;2022-09-17T06:36:10;12.30;99.90
46552;DHT22;32278;51.810;4.712;2022-09-17T06:38:36;12.30;99.90
46552;DHT22;32278;51.810;4.712;2022-09-17T06:41:03;12.30;99.90
46552;DHT22;32278;51.810;4.712;2022-09-17T06:43:29;12.40;99.90
46552;DHT22;32278;51.810;4.712;2022-09-17T06:45:59;12.60;99.90
46552;DHT22;32278;51.810;4.712;2022-09-17T06:48:26;12.40;99.90
46552;DHT22;32278;51.810;4.712;2022-09-17T06:50:52;12.50;99.90
46552;DHT22;32278;51.810;4.712;2022-09-17T06:53:22;12.60;99.90
46552;DHT22;32278;51.810;4.712;2022-09-17T06:55:48;12.80;99.90
46552;DHT22;32278;51.810;4.712;2022-09-17T06:58:13;12.80;99.90
46552;DHT22;32278;51.810;4.712;2022-09-17T07:00:39;12.90;99.90
46552;DHT22;32278;51.810;4.712;2022-09-17T07:03:04;12.90;99.90
46552;DHT22;32278;51.810;4.712;2022-09-17T07:05:31;12.70;99.90
46552;DHT22;32278;51.810;4.712;2022-09-17T07:08:02;12.60;99.90
46552;DHT22;32278;51.810;4.712;2022-09-17T07:10:29;12.60;99.90
46552;DHT22;32278;51.810;4.712;2022-09-17T07:12:55;12.50;99.90
46552;DHT22;32278;51.810;4.712;2022-09-17T07:15:21;12.40;99.90
46552;DHT22;32278;51.810;4.712;2022-09-17T07:17:47;12.40;99.90
46552;DHT22;32278;51.810;4.712;2022-09-17T07:20:13;12.50;99.90
46552;DHT22;32278;51.810;4.712;2022-09-17T07:22:39;12.50;99.90
46552;DHT22;32278;51.810;4.712;2022-09-17T07:25:05;12.50;99.90
46552;DHT22;32278;51.810;4.712;2022-09-17T07:27:32;12.80;99.90
46552;DHT22;32278;51.810;4.712;2022-09-17T07:29:57;13.10;99.90
46552;DHT22;32278;51.810;4.712;2022-09-17T07:32:23;13.30;99.90
46552;DHT22;32278;51.810;4.712;2022-09-17T07:34:49;13.50;99.90
46552;DHT22;32278;51.810;4.712;2022-09-17T07:37:15;13.70;99.90
46552;DHT22;32278;51.810;4.712;2022-09-17T07:39:41;13.80;99.90
46552;DHT22;32278;51.810;4.712;2022-09-17T07:42:08;13.70;99.90
46552;DHT22;32278;51.810;4.712;2022-09-17T07:44:34;13.30;99.90
46552;DHT22;32278;51.810;4.712;2022-09-17T07:46:59;13.10;99.90
46552;DHT22;32278;51.810;4.712;2022-09-17T07:49:25;12.70;99.90
46552;DHT22;32278;51.810;4.712;2022-09-17T07:51:50;12.50;99.90
46552;DHT22;32278;51.810;4.712;2022-09-17T07:54:16;12.50;99.90
46552;DHT22;32278;51.810;4.712;2022-09-17T07:56:42;12.60;99.90
46552;DHT22;32278;51.810;4.712;2022-09-17T07:59:09;12.70;99.90
46552;DHT22;32278;51.810;4.712;2022-09-17T08:01:35;12.80;99.90
46552;DHT22;32278;51.810;4.712;2022-09-17T08:04:03;13.00;99.90
46552;DHT22;32278;51.810;4.712;2022-09-17T08:06:29;13.10;99.90
46552;DHT22;32278;51.810;4.712;2022-09-17T08:08:56;13.30;99.90
46552;DHT22;32278;51.810;4.712;2022-09-17T08:11:24;13.50;99.90
46552;DHT22;32278;51.810;4.712;2022-09-17T08:13:51;13.50;99.90
46552;DHT22;32278;51.810;4.712;2022-09-17T08:16:18;13.70;99.90
46552;DHT22;32278;51.810;4.712;2022-09-17T08:18:45;13.70;99.90
46552;DHT22;32278;51.810;4.712;2022-09-17T08:21:12;13.90;99.90
46552;DHT22;32278;51.810;4.712;2022-09-17T08:23:40;14.00;99.90
46552;DHT22;32278;51.810;4.712;2022-09-17T08:26:08;13.90;99.90
46552;DHT22;32278;51.810;4.712;2022-09-17T08:28:35;13.70;99.90
46552;DHT22;32278;51.810;4.712;2022-09-17T08:31:03;13.80;99.90
46552;DHT22;32278;51.810;4.712;2022-09-17T08:33:33;13.70;99.90
46552;DHT22;32278;51.810;4.712;2022-09-17T08:35:59;13.80;99.90
46552;DHT22;32278;51.810;4.712;2022-09-17T08:38:26;14.10;99.90
46552;DHT22;32278;51.810;4.712;2022-09-17T08:43:46;14.10;99.90
46552;DHT22;32278;51.810;4.712;2022-09-17T08:46:15;14.40;99.90
46552;DHT22;32278;51.810;4.712;2022-09-17T08:51:23;14.60;99.90
46552;DHT22;32278;51.810;4.712;2022-09-17T08:54:11;14.60;99.90
46552;DHT22;32278;51.810;4.712;2022-09-17T08:56:41;13.90;99.90
46552;DHT22;32278;51.810;4.712;2022-09-17T08:59:32;13.70;99.90
46552;DHT22;32278;51.810;4.712;2022-09-17T09:05:29;13.20;99.90
46552;DHT22;32278;51.810;4.712;2022-09-17T09:08:10;13.30;99.90
46552;DHT22;32278;51.810;4.712;2022-09-17T09:10:46;13.40;99.90
46552;DHT22;32278;51.810;4.712;2022-09-17T09:13:15;13.40;99.90
46552;DHT22;32278;51.810;4.712;2022-09-17T09:15:46;13.50;99.90
46552;DHT22;32278;51.810;4.712;2022-09-17T09:18:22;13.80;99.90
46552;DHT22;32278;51.810;4.712;2022-09-17T09:20:52;14.00;99.90
46552;DHT22;32278;51.810;4.712;2022-09-17T09:23:31;14.30;99.90
46552;DHT22;32278;51.810;4.712;2022-09-17T09:26:16;14.30;99.90
46552;DHT22;32278;51.810;4.712;2022-09-17T09:29:03;14.40;99.90
46552;DHT22;32278;51.810;4.712;2022-09-17T09:34:26;14.00;99.90
46552;DHT22;32278;51.810;4.712;2022-09-17T09:37:09;14.10;99.90
46552;DHT22;32278;51.810;4.712;2022-09-17T09:39:37;14.30;99.90
46552;DHT22;32278;51.810;4.712;2022-09-17T09:42:10;14.40;99.90
46552;DHT22;32278;51.810;4.712;2022-09-17T09:44:38;14.50;99.90
46552;DHT22;32278;51.810;4.712;2022-09-17T09:47:28;14.50;99.90
46552;DHT22;32278;51.810;4.712;2022-09-17T09:58:36;15.00;99.90
46552;DHT22;32278;51.810;4.712;2022-09-17T10:01:11;15.10;99.90
46552;DHT22;32278;51.810;4.712;2022-09-17T10:03:40;14.60;99.90
46552;DHT22;32278;51.810;4.712;2022-09-17T10:06:10;14.30;99.90
46552;DHT22;32278;51.810;4.712;2022-09-17T10:08:41;13.90;99.90
46552;DHT22;32278;51.810;4.712;2022-09-17T10:13:38;14.00;99.90
46552;DHT22;32278;51.810;4.712;2022-09-17T10:16:24;14.10;99.90
46552;DHT22;32278;51.810;4.712;2022-09-17T10:19:20;14.20;99.90
46552;DHT22;32278;51.810;4.712;2022-09-17T10:21:51;14.10;99.90
46552;DHT22;32278;51.810;4.712;2022-09-17T10:24:29;14.10;99.90
46552;DHT22;32278;51.810;4.712;2022-09-17T10:27:09;14.30;99.90
46552;DHT22;32278;51.810;4.712;2022-09-17T10:29:45;14.20;99.90
46552;DHT22;32278;51.810;4.712;2022-09-17T10:32:16;14.20;99.90
46552;DHT22;32278;51.810;4.712;2022-09-17T10:37:45;14.70;99.90
46552;DHT22;32278;51.810;4.712;2022-09-17T10:42:46;14.80;99.90
46552;DHT22;32278;51.810;4.712;2022-09-17T10:45:28;14.50;99.90
46552;DHT22;32278;51.810;4.712;2022-09-17T10:47:55;14.30;99.90
46552;DHT22;32278;51.810;4.712;2022-09-17T10:50:34;14.10;99.90
46552;DHT22;32278;51.810;4.712;2022-09-17T10:53:06;14.10;99.90
46552;DHT22;32278;51.810;4.712;2022-09-17T10:58:17;14.20;99.90
46552;DHT22;32278;51.810;4.712;2022-09-17T11:03:47;13.90;99.90
46552;DHT22;32278;51.810;4.712;2022-09-17T11:06:28;14.00;99.90
46552;DHT22;32278;51.810;4.712;2022-09-17T11:11:55;14.30;99.90
46552;DHT22;32278;51.810;4.712;2022-09-17T11:17:24;14.70;99.90
46552;DHT22;32278;51.810;4.712;2022-09-17T11:23:01;15.20;99.90
46552;DHT22;32278;51.810;4.712;2022-09-17T11:25:43;15.10;99.90
46552;DHT22;32278;51.810;4.712;2022-09-17T11:36:25;15.40;99.90
46552;DHT22;32278;51.810;4.712;2022-09-17T11:38:55;16.00;99.90
46552;DHT22;32278;51.810;4.712;2022-09-17T11:41:32;16.30;99.90
46552;DHT22;32278;51.810;4.712;2022-09-17T11:44:25;16.50;99.90
46552;DHT22;32278;51.810;4.712;2022-09-17T11:47:04;17.10;99.90
46552;DHT22;32278;51.810;4.712;2022-09-17T11:49:33;17.00;99.90
46552;DHT22;32278;51.810;4.712;2022-09-17T11:52:05;17.40;99.90
46552;DHT22;32278;51.810;4.712;2022-09-17T11:54:39;17.20;99.90
46552;DHT22;32278;51.810;4.712;2022-09-17T11:57:15;17.40;99.90
46552;DHT22;32278;51.810;4.712;2022-09-17T11:59:49;16.80;99.90
46552;DHT22;32278;51.810;4.712;2022-09-17T12:02:21;16.10;99.90
46552;DHT22;32278;51.810;4.712;2022-09-17T12:05:03;15.90;99.90
46552;DHT22;32278;51.810;4.712;2022-09-17T12:08:07;15.50;99.90
46552;DHT22;32278;51.810;4.712;2022-09-17T12:13:29;15.80;99.90
46552;DHT22;32278;51.810;4.712;2022-09-17T12:16:07;15.30;99.90
46552;DHT22;32278;51.810;4.712;2022-09-17T12:21:56;14.30;99.90
46552;DHT22;32278;51.810;4.712;2022-09-17T12:24:27;14.40;99.90
46552;DHT22;32278;51.810;4.712;2022-09-17T12:32:32;15.70;99.90
46552;DHT22;32278;51.810;4.712;2022-09-17T12:46:22;16.00;99.90
46552;DHT22;32278;51.810;4.712;2022-09-17T13:00:20;16.90;99.90
46552;DHT22;32278;51.810;4.712;2022-09-17T13:02:43;16.70;99.90
46552;DHT22;32278;51.810;4.712;2022-09-17T13:08:21;16.90;99.90
46552;DHT22;32278;51.810;4.712;2022-09-17T13:11:18;16.80;99.90
46552;DHT22;32278;51.810;4.712;2022-09-17T13:16:56;16.90;99.90
46552;DHT22;32278;51.810;4.712;2022-09-17T13:19:43;16.50;99.90
46552;DHT22;32278;51.810;4.712;2022-09-17T13:22:16;16.40;99.90
46552;DHT22;32278;51.810;4.712;2022-09-17T13:24:42;16.50;99.90
46552;DHT22;32278;51.810;4.712;2022-09-17T13:27:22;16.30;99.90
46552;DHT22;32278;51.810;4.712;2022-09-17T13:37:32;16.40;99.90
46552;DHT22;32278;51.810;4.712;2022-09-17T13:40:00;16.10;99.90
46552;DHT22;32278;51.810;4.712;2022-09-17T13:42:41;16.20;99.90
46552;DHT22;32278;51.810;4.712;2022-09-17T13:45:12;16.30;99.90
46552;DHT22;32278;51.810;4.712;2022-09-17T13:47:59;16.20;99.90
46552;DHT22;32278;51.810;4.712;2022-09-17T13:50:32;16.30;99.90
46552;DHT22;32278;51.810;4.712;2022-09-17T13:58:23;16.40;99.90
46552;DHT22;32278;51.810;4.712;2022-09-17T14:00:58;16.40;99.90
46552;DHT22;32278;51.810;4.712;2022-09-17T14:05:57;16.30;99.90
46552;DHT22;32278;51.810;4.712;2022-09-17T14:24:38;15.20;99.90
46552;DHT22;32278;51.810;4.712;2022-09-17T14:31:55;14.20;99.90
46552;DHT22;32278;51.810;4.712;2022-09-17T14:34:24;14.40;99.90
46552;DHT22;32278;51.810;4.712;2022-09-17T14:36:51;14.50;99.90
46552;DHT22;32278;51.810;4.712;2022-09-17T14:39:23;14.70;99.90
46552;DHT22;32278;51.810;4.712;2022-09-17T14:41:50;14.90;99.90
46552;DHT22;32278;51.810;4.712;2022-09-17T14:44:19;15.10;99.90
46552;DHT22;32278;51.810;4.712;2022-09-17T14:46:59;15.10;99.90
46552;DHT22;32278;51.810;4.712;2022-09-17T14:49:33;15.20;99.90
46552;DHT22;32278;51.810;4.712;2022-09-17T14:52:00;15.30;99.90
46552;DHT22;32278;51.810;4.712;2022-09-17T14:54:33;15.40;99.90
46552;DHT22;32278;51.810;4.712;2022-09-17T14:59:51;15.60;99.90
46552;DHT22;32278;51.810;4.712;2022-09-17T15:04:57;15.40;99.90
46552;DHT22;32278;51.810;4.712;2022-09-17T15:07:23;15.40;99.90
46552;DHT22;32278;51.810;4.712;2022-09-17T15:09:49;15.40;99.90
46552;DHT22;32278;51.810;4.712;2022-09-17T15:12:17;15.40;99.90
46552;DHT22;32278;51.810;4.712;2022-09-17T15:14:45;15.40;99.90
46552;DHT22;32278;51.810;4.712;2022-09-17T15:17:14;15.50;99.90
46552;DHT22;32278;51.810;4.712;2022-09-17T15:19:46;15.50;99.90
46552;DHT22;32278;51.810;4.712;2022-09-17T15:22:24;15.40;99.90
46552;DHT22;32278;51.810;4.712;2022-09-17T15:25:01;15.40;99.90
46552;DHT22;32278;51.810;4.712;2022-09-17T15:27:39;15.40;99.90
46552;DHT22;32278;51.810;4.712;2022-09-17T15:30:08;15.40;99.90
46552;DHT22;32278;51.810;4.712;2022-09-17T15:32:35;15.50;99.90
46552;DHT22;32278;51.810;4.712;2022-09-17T15:37:46;15.20;99.90
46552;DHT22;32278;51.810;4.712;2022-09-17T15:40:14;15.20;99.90
46552;DHT22;32278;51.810;4.712;2022-09-17T15:42:51;15.20;99.90
46552;DHT22;32278;51.810;4.712;2022-09-17T15:45:21;15.10;99.90
46552;DHT22;32278;51.810;4.712;2022-09-17T15:47:58;15.00;99.90
46552;DHT22;32278;51.810;4.712;2022-09-17T15:50:32;14.90;99.90
46552;DHT22;32278;51.810;4.712;2022-09-17T15:55:39;14.70;99.90
46552;DHT22;32278;51.810;4.712;2022-09-17T15:58:26;14.60;99.90
46552;DHT22;32278;51.810;4.712;2022-09-17T16:04:20;14.40;99.90
46552;DHT22;32278;51.810;4.712;2022-09-17T16:12:19;14.20;99.90
46552;DHT22;32278;51.810;4.712;2022-09-17T16:14:48;14.20;99.90
46552;DHT22;32278;51.810;4.712;2022-09-17T16:17:24;14.20;99.90
46552;DHT22;32278;51.810;4.712;2022-09-17T16:19:53;14.20;99.90
46552;DHT22;32278;51.810;4.712;2022-09-17T16:22:20;14.00;99.90
46552;DHT22;32278;51.810;4.712;2022-09-17T16:24:46;13.80;99.90
46552;DHT22;32278;51.810;4.712;2022-09-17T16:27:18;13.50;99.90
46552;DHT22;32278;51.810;4.712;2022-09-17T16:29:45;13.40;99.90
46552;DHT22;32278;51.810;4.712;2022-09-17T16:32:11;13.20;99.90
46552;DHT22;32278;51.810;4.712;2022-09-17T16:34:37;13.30;99.90
46552;DHT22;32278;51.810;4.712;2022-09-17T16:37:02;13.20;99.90
46552;DHT22;32278;51.810;4.712;2022-09-17T16:39:28;13.30;99.90
46552;DHT22;32278;51.810;4.712;2022-09-17T16:41:53;13.30;99.90
46552;DHT22;32278;51.810;4.712;2022-09-17T16:44:19;13.40;99.90
46552;DHT22;32278;51.810;4.712;2022-09-17T16:46:44;13.40;99.90
46552;DHT22;32278;51.810;4.712;2022-09-17T16:49:10;13.30;99.90
46552;DHT22;32278;51.810;4.712;2022-09-17T16:51:36;13.40;99.90
46552;DHT22;32278;51.810;4.712;2022-09-17T16:54:01;13.40;99.90
46552;DHT22;32278;51.810;4.712;2022-09-17T16:56:27;13.40;99.90
46552;DHT22;32278;51.810;4.712;2022-09-17T16:58:53;13.40;99.90
46552;DHT22;32278;51.810;4.712;2022-09-17T17:01:19;13.40;99.90
46552;DHT22;32278;51.810;4.712;2022-09-17T17:03:45;13.30;99.90
46552;DHT22;32278;51.810;4.712;2022-09-17T17:06:19;13.40;99.90
46552;DHT22;32278;51.810;4.712;2022-09-17T17:08:44;13.40;99.90
46552;DHT22;32278;51.810;4.712;2022-09-17T17:11:10;13.50;99.90
46552;DHT22;32278;51.810;4.712;2022-09-17T17:13:36;13.40;99.90
46552;DHT22;32278;51.810;4.712;2022-09-17T17:16:09;13.40;99.90
46552;DHT22;32278;51.810;4.712;2022-09-17T17:18:35;13.40;99.90
46552;DHT22;32278;51.810;4.712;2022-09-17T17:21:05;13.40;99.90
46552;DHT22;32278;51.810;4.712;2022-09-17T17:23:32;13.50;99.90
46552;DHT22;32278;51.810;4.712;2022-09-17T17:25:58;13.40;99.90
46552;DHT22;32278;51.810;4.712;2022-09-17T17:28:24;13.20;99.90
46552;DHT22;32278;51.810;4.712;2022-09-17T17:30:49;13.10;99.90
46552;DHT22;32278;51.810;4.712;2022-09-17T17:33:15;13.10;99.90
46552;DHT22;32278;51.810;4.712;2022-09-17T17:35:40;13.20;99.90
46552;DHT22;32278;51.810;4.712;2022-09-17T17:38:06;13.30;99.90
46552;DHT22;32278;51.810;4.712;2022-09-17T17:40:32;13.30;99.90
46552;DHT22;32278;51.810;4.712;2022-09-17T17:42:58;13.30;99.90
46552;DHT22;32278;51.810;4.712;2022-09-17T17:45:24;13.20;99.90
46552;DHT22;32278;51.810;4.712;2022-09-17T17:47:51;13.20;99.90
46552;DHT22;32278;51.810;4.712;2022-09-17T17:50:16;13.10;99.90
46552;DHT22;32278;51.810;4.712;2022-09-17T17:52:42;13.20;99.90
46552;DHT22;32278;51.810;4.712;2022-09-17T17:55:14;13.20;99.90
46552;DHT22;32278;51.810;4.712;2022-09-17T17:57:39;13.30;99.90
46552;DHT22;32278;51.810;4.712;2022-09-17T18:00:06;13.20;99.90
46552;DHT22;32278;51.810;4.712;2022-09-17T18:02:31;13.30;99.90
46552;DHT22;32278;51.810;4.712;2022-09-17T18:04:57;13.30;99.90
46552;DHT22;32278;51.810;4.712;2022-09-17T18:07:22;13.50;99.90
46552;DHT22;32278;51.810;4.712;2022-09-17T18:09:48;13.50;99.90
46552;DHT22;32278;51.810;4.712;2022-09-17T18:12:14;13.50;99.90
46552;DHT22;32278;51.810;4.712;2022-09-17T18:14:39;13.50;99.90
46552;DHT22;32278;51.810;4.712;2022-09-17T18:17:05;13.60;99.90
46552;DHT22;32278;51.810;4.712;2022-09-17T18:19:30;13.60;99.90
46552;DHT22;32278;51.810;4.712;2022-09-17T18:21:56;13.60;99.90
46552;DHT22;32278;51.810;4.712;2022-09-17T18:24:21;13.60;99.90
46552;DHT22;32278;51.810;4.712;2022-09-17T18:26:47;13.60;99.90
46552;DHT22;32278;51.810;4.712;2022-09-17T18:29:12;13.50;99.90
46552;DHT22;32278;51.810;4.712;2022-09-17T18:31:38;13.50;99.90
46552;DHT22;32278;51.810;4.712;2022-09-17T18:34:13;13.50;99.90
46552;DHT22;32278;51.810;4.712;2022-09-17T18:36:40;13.50;99.90
46552;DHT22;32278;51.810;4.712;2022-09-17T18:39:09;13.40;99.90
46552;DHT22;32278;51.810;4.712;2022-09-17T18:41:36;13.30;99.90
46552;DHT22;32278;51.810;4.712;2022-09-17T18:44:04;13.20;99.90
46552;DHT22;32278;51.810;4.712;2022-09-17T18:46:30;13.20;99.90
46552;DHT22;32278;51.810;4.712;2022-09-17T18:48:56;13.10;99.90
46552;DHT22;32278;51.810;4.712;2022-09-17T18:51:23;13.00;99.90
46552;DHT22;32278;51.810;4.712;2022-09-17T18:53:49;13.10;99.90
46552;DHT22;32278;51.810;4.712;2022-09-17T18:56:20;13.30;99.90